Time;durP1;ratioP1;P1;durP2;ratioP2;P2;SDS_P1;SDS_P2;PMS_P1;PMS_P2;Temp;Humidity;BMP_temperature;BMP_pressure;BME280_temperature;BME280_humidity;BME280_pressure;Samples;Min_cycle;Max_cycle;Signal;HPM_P1;HPM_P2
2022/03/30 00:00:07;;;;;;;26.20;15.63;;;8.90;1.00;;;;;;5058765;28;20218;-81
2022/03/30 00:02:33;;;;;;;27.47;15.27;;;8.90;1.00;;;;;;5060903;28;20237;-80
2022/03/30 00:04:58;;;;;;;23.40;15.27;;;8.90;1.00;;;;;;5060903;28;20708;-80
2022/03/30 00:07:24;;;;;;;25.83;15.27;;;8.90;1.00;;;;;;5060123;28;20192;-80
2022/03/30 00:09:50;;;;;;;28.00;14.67;;;8.90;1.00;;;;;;5065926;28;20203;-80
2022/03/30 00:12:15;;;;;;;30.47;15.57;;;8.90;1.00;;;;;;5063278;28;20245;-80
2022/03/30 00:14:41;;;;;;;24.37;15.63;;;8.90;1.00;;;;;;5064495;28;20647;-80
2022/03/30 00:17:06;;;;;;;24.43;15.30;;;8.80;1.00;;;;;;5064724;28;20170;-79
2022/03/30 00:19:32;;;;;;;28.03;15.30;;;8.80;1.00;;;;;;5064682;28;20207;-80
2022/03/30 00:21:58;;;;;;;28.30;14.57;;;8.80;1.00;;;;;;5057668;28;20196;-80
2022/03/30 00:24:23;;;;;;;25.50;14.83;;;8.80;1.00;;;;;;5059382;28;20228;-80
2022/03/30 00:26:49;;;;;;;22.67;15.03;;;8.80;1.00;;;;;;5059119;28;20266;-79
2022/03/30 00:29:14;;;;;;;22.70;14.77;;;8.80;1.00;;;;;;5059104;28;20183;-80
2022/03/30 00:31:40;;;;;;;23.43;14.73;;;8.80;1.00;;;;;;5058761;28;20215;-79
2022/03/30 00:34:06;;;;;;;26.77;15.37;;;8.80;1.00;;;;;;5057788;28;20184;-80
2022/03/30 00:36:32;;;;;;;26.93;15.07;;;8.80;1.00;;;;;;5059545;28;20172;-80
2022/03/30 00:38:58;;;;;;;27.00;15.43;;;8.80;46.00;;;;;;5059162;28;20184;-80
2022/03/30 00:41:26;;;;;;;25.67;14.90;;;8.80;99.90;;;;;;5059135;28;20199;-80
2022/03/30 00:43:51;;;;;;;29.30;15.87;;;8.80;99.90;;;;;;5057561;28;20180;-80
2022/03/30 00:46:17;;;;;;;32.53;16.17;;;8.80;99.90;;;;;;5057848;28;20175;-80
2022/03/30 00:48:43;;;;;;;30.97;16.00;;;8.70;99.90;;;;;;5057660;28;20649;-80
2022/03/30 00:51:09;;;;;;;25.07;15.67;;;8.70;99.90;;;;;;5058067;28;20195;-80
2022/03/30 00:53:34;;;;;;;28.23;14.67;;;8.70;99.90;;;;;;5058670;28;20202;-79
2022/03/30 00:56:01;;;;;;;24.60;14.93;;;8.70;99.90;;;;;;5058587;28;20213;-80
2022/03/30 00:58:28;;;;;;;32.37;16.43;;;8.70;99.90;;;;;;5058819;28;20183;-80
2022/03/30 01:00:55;;;;;;;27.30;15.30;;;8.60;1.00;;;;;;5058167;28;20172;-80
2022/03/30 01:03:20;;;;;;;33.87;15.63;;;8.60;99.90;;;;;;5058399;28;20210;-80
2022/03/30 01:05:46;;;;;;;28.93;16.50;;;8.60;99.90;;;;;;5059450;28;20175;-80
2022/03/30 01:08:12;;;;;;;25.97;14.97;;;8.60;1.00;;;;;;5066794;28;20242;-79
2022/03/30 01:10:38;;;;;;;23.87;14.53;;;8.60;1.00;;;;;;5077422;28;20203;-79
2022/03/30 01:13:05;;;;;;;30.60;16.53;;;8.50;1.00;;;;;;5069544;28;20230;-79
2022/03/30 01:15:31;;;;;;;27.77;15.33;;;8.50;1.00;;;;;;5059146;28;20188;-79
2022/03/30 01:17:57;;;;;;;25.07;15.23;;;8.50;1.00;;;;;;5058802;28;20270;-80
2022/03/30 01:20:23;;;;;;;25.40;15.47;;;8.50;1.00;;;;;;5058705;28;20184;-80
2022/03/30 01:22:50;;;;;;;31.23;16.63;;;8.50;1.00;;;;;;5058640;28;20204;-80
2022/03/30 01:25:16;;;;;;;27.57;14.33;;;8.40;1.00;;;;;;5059066;28;20175;-80
2022/03/30 01:27:41;;;;;;;25.27;15.63;;;8.40;1.00;;;;;;5058553;28;20205;-79
2022/03/30 01:32:57;;;;;;;22.03;13.97;;;8.30;1.00;;;;;;5058257;28;20612;-79
2022/03/30 01:35:23;;;;;;;24.43;14.63;;;8.30;99.90;;;;;;5059297;28;20179;-79
2022/03/30 01:37:49;;;;;;;25.20;14.17;;;8.30;99.90;;;;;;5058059;28;20179;-80
2022/03/30 01:40:14;;;;;;;28.77;15.53;;;8.20;1.00;;;;;;5057005;28;20256;-80
2022/03/30 01:42:40;;;;;;;26.93;15.40;;;8.20;1.00;;;;;;5060684;28;20275;-79
2022/03/30 01:45:06;;;;;;;28.67;16.13;;;8.10;1.00;;;;;;5073144;28;20176;-79
2022/03/30 01:47:31;;;;;;;24.83;15.73;;;8.10;44.70;;;;;;5065097;28;20187;-80
2022/03/30 01:49:57;;;;;;;26.70;14.73;;;8.10;99.90;;;;;;5059668;28;20199;-80
2022/03/30 01:52:24;;;;;;;25.90;15.00;;;8.10;1.00;;;;;;5058574;28;20207;-79
2022/03/30 01:54:50;;;;;;;30.00;16.37;;;8.00;1.00;;;;;;5058998;28;20175;-79
2022/03/30 01:57:15;;;;;;;27.87;15.87;;;8.00;1.00;;;;;;5058348;28;20544;-80
2022/03/30 01:59:43;;;;;;;28.00;16.00;;;8.00;1.00;;;;;;5057413;28;20175;-80
2022/03/30 02:02:09;;;;;;;27.80;15.27;;;8.00;1.00;;;;;;5058839;28;20202;-79
2022/03/30 02:04:38;;;;;;;29.10;15.23;;;8.00;4.20;;;;;;5056331;28;20190;-79
2022/03/30 02:07:06;;;;;;;26.50;16.07;;;8.00;65.10;;;;;;5058483;28;20174;-80
2022/03/30 02:09:32;;;;;;;27.60;15.57;;;7.90;99.90;;;;;;5058358;28;20171;-80
2022/03/30 02:11:59;;;;;;;30.23;16.20;;;7.90;99.90;;;;;;5057982;28;20241;-80
2022/03/30 02:14:24;;;;;;;27.30;15.77;;;7.90;12.80;;;;;;5056717;28;20606;-80
2022/03/30 02:16:50;;;;;;;38.17;16.37;;;7.80;99.90;;;;;;5056978;28;20179;-79
2022/03/30 02:19:16;;;;;;;30.70;16.23;;;7.80;18.90;;;;;;5058242;28;20169;-79
2022/03/30 02:21:41;;;;;;;27.10;16.73;;;7.90;66.20;;;;;;5057542;28;20195;-80
2022/03/30 02:24:07;;;;;;;26.17;16.03;;;7.80;99.90;;;;;;5056692;28;20189;-79
2022/03/30 02:26:33;;;;;;;24.43;15.33;;;7.80;54.40;;;;;;5058408;28;20186;-80
2022/03/30 02:28:59;;;;;;;29.63;16.10;;;7.80;99.90;;;;;;5072067;28;20197;-79
2022/03/30 02:31:24;;;;;;;34.67;16.23;;;7.80;99.90;;;;;;5076147;28;20215;-79
2022/03/30 02:33:50;;;;;;;35.90;16.90;;;7.80;99.90;;;;;;5067956;28;20184;-80
2022/03/30 02:36:16;;;;;;;28.60;16.30;;;7.80;99.90;;;;;;5060308;28;20175;-80
2022/03/30 02:38:43;;;;;;;26.60;16.83;;;7.80;99.90;;;;;;5058194;28;20180;-79
2022/03/30 02:41:10;;;;;;;30.50;16.53;;;7.70;99.90;;;;;;5058703;28;20179;-79
2022/03/30 02:43:36;;;;;;;29.33;15.07;;;7.70;1.00;;;;;;5057296;28;20550;-80
2022/03/30 02:46:03;;;;;;;27.97;16.93;;;7.70;1.00;;;;;;5057187;28;20655;-80
2022/03/30 02:48:29;;;;;;;35.10;17.07;;;7.70;99.90;;;;;;5057909;28;20274;-80
2022/03/30 02:50:57;;;;;;;30.63;16.23;;;7.60;99.90;;;;;;5057214;28;20265;-80
2022/03/30 02:53:23;;;;;;;28.63;17.00;;;7.60;99.90;;;;;;5056628;28;20218;-80
2022/03/30 02:55:49;;;;;;;31.60;17.47;;;7.60;99.90;;;;;;5057972;28;20204;-80
2022/03/30 02:58:15;;;;;;;30.60;16.90;;;7.60;99.90;;;;;;5057451;28;20203;-80
2022/03/30 03:00:42;;;;;;;35.80;16.50;;;7.50;1.00;;;;;;5059283;28;20183;-80
2022/03/30 03:03:09;;;;;;;27.60;17.67;;;7.50;1.00;;;;;;5058522;28;20210;-79
2022/03/30 03:05:36;;;;;;;29.13;16.90;;;7.50;1.00;;;;;;5057543;28;20191;-80
2022/03/30 03:08:04;;;;;;;33.03;17.83;;;7.40;1.00;;;;;;5057513;28;20175;-81
2022/03/30 03:10:31;;;;;;;26.77;17.20;;;7.40;1.00;;;;;;5054775;28;20203;-79
2022/03/30 03:12:56;;;;;;;31.43;17.03;;;7.30;1.00;;;;;;5054723;28;20222;-79
2022/03/30 03:15:22;;;;;;;30.37;16.43;;;7.20;1.00;;;;;;5056637;28;20179;-79
2022/03/30 03:17:48;;;;;;;31.93;16.87;;;7.20;99.90;;;;;;5055185;28;20183;-80
2022/03/30 03:20:14;;;;;;;29.77;16.23;;;7.10;1.00;;;;;;5057175;28;20263;-80
2022/03/30 03:22:40;;;;;;;32.70;16.70;;;7.10;99.90;;;;;;5056515;28;20195;-80
2022/03/30 03:25:07;;;;;;;32.13;16.87;;;7.00;1.00;;;;;;5056904;28;20266;-79
2022/03/30 03:27:33;;;;;;;28.20;17.30;;;7.00;1.00;;;;;;5056899;28;20274;-79
2022/03/30 03:29:59;;;;;;;26.73;16.43;;;6.90;7.10;;;;;;5056251;28;20713;-79
2022/03/30 03:32:25;;;;;;;27.37;16.30;;;6.90;99.90;;;;;;5055905;28;20204;-80
2022/03/30 03:34:50;;;;;;;33.23;18.30;;;6.90;99.90;;;;;;5057037;28;20181;-79
2022/03/30 03:37:16;;;;;;;30.37;17.73;;;6.90;1.00;;;;;;5056354;28;20167;-79
2022/03/30 03:39:42;;;;;;;35.33;17.20;;;6.80;1.00;;;;;;5056303;28;20265;-80
2022/03/30 03:42:08;;;;;;;26.13;16.73;;;6.80;9.30;;;;;;5055205;28;20206;-79
2022/03/30 03:44:34;;;;;;;26.83;16.53;;;6.80;99.90;;;;;;5058255;28;20641;-79
2022/03/30 03:46:59;;;;;;;29.57;16.37;;;6.80;99.90;;;;;;5059046;28;20187;-79
2022/03/30 03:49:25;;;;;;;32.20;18.13;;;6.70;1.00;;;;;;5065279;28;20176;-79
2022/03/30 03:51:51;;;;;;;31.33;18.07;;;6.70;1.00;;;;;;5069750;28;20192;-79
2022/03/30 03:54:17;;;;;;;31.13;17.03;;;6.70;1.00;;;;;;5067108;28;20179;-79
2022/03/30 03:56:43;;;;;;;37.57;18.43;;;6.70;1.00;;;;;;5061171;28;20266;-80
2022/03/30 03:59:09;;;;;;;34.60;17.33;;;6.70;1.00;;;;;;5061921;28;20222;-79
2022/03/30 04:01:35;;;;;;;32.07;17.40;;;6.70;1.00;;;;;;5061122;28;20222;-79
2022/03/30 04:04:01;;;;;;;36.27;18.57;;;6.70;1.00;;;;;;5060128;28;20173;-79
2022/03/30 04:06:27;;;;;;;30.47;17.40;;;6.70;1.00;;;;;;5065488;28;20201;-79
2022/03/30 04:08:54;;;;;;;32.07;17.43;;;6.60;99.90;;;;;;5068295;28;20199;-79
2022/03/30 04:13:55;;;;;;;33.00;17.27;;;6.60;1.00;;;;;;5079513;22;20241;-79
2022/03/30 04:16:21;;;;;;;34.53;17.73;;;6.60;1.00;;;;;;5054749;28;20168;-76
2022/03/30 04:18:47;;;;;;;34.63;17.20;;;6.60;1.00;;;;;;5053552;28;20255;-79
2022/03/30 04:21:12;;;;;;;34.53;17.60;;;6.50;1.00;;;;;;5057322;28;20200;-80
2022/03/30 04:23:38;;;;;;;29.97;17.93;;;6.50;48.70;;;;;;5058171;28;20202;-79
2022/03/30 04:26:04;;;;;;;34.37;18.47;;;6.40;18.90;;;;;;5039523;28;20692;-78
2022/03/30 04:28:30;;;;;;;34.80;16.97;;;6.40;99.90;;;;;;5058549;28;20168;-79
2022/03/30 04:30:56;;;;;;;34.57;18.17;;;6.40;1.00;;;;;;5057237;28;20211;-77
2022/03/30 04:33:22;;;;;;;31.87;16.83;;;6.30;1.00;;;;;;5055387;28;20203;-76
2022/03/30 04:35:47;;;;;;;32.07;18.13;;;6.30;1.00;;;;;;5056000;28;20307;-76
2022/03/30 04:38:14;;;;;;;38.20;17.60;;;6.30;1.00;;;;;;5055725;28;20172;-76
2022/03/30 04:40:40;;;;;;;34.00;16.50;;;6.20;1.00;;;;;;5057385;28;20258;-79
2022/03/30 04:43:06;;;;;;;29.07;16.87;;;6.20;13.20;;;;;;5060189;28;20202;-79
2022/03/30 04:45:32;;;;;;;32.83;17.30;;;6.20;90.90;;;;;;5055882;28;20220;-76
2022/03/30 04:47:57;;;;;;;28.23;16.80;;;6.00;99.90;;;;;;5055619;28;20183;-76
2022/03/30 04:50:23;;;;;;;30.67;17.30;;;6.00;1.00;;;;;;5055894;28;20302;-79
2022/03/30 04:52:49;;;;;;;29.97;16.70;;;6.00;1.00;;;;;;5058782;28;20187;-79
2022/03/30 04:55:14;;;;;;;28.03;16.53;;;5.90;99.90;;;;;;5041931;28;20560;-79
2022/03/30 04:57:40;;;;;;;28.70;17.13;;;5.80;1.00;;;;;;5042643;28;20553;-78
2022/03/30 05:00:09;;;;;;;29.03;16.40;;;5.80;99.90;;;;;;5043486;28;20222;-79
2022/03/30 05:02:35;;;;;;;33.53;17.20;;;5.70;1.00;;;;;;5059854;28;20200;-78
2022/03/30 05:05:01;;;;;;;33.53;18.70;;;5.60;99.90;;;;;;5060972;28;20183;-78
2022/03/30 05:07:26;;;;;;;31.30;17.83;;;5.60;99.90;;;;;;5061217;28;20254;-79
2022/03/30 05:09:52;;;;;;;37.30;18.47;;;5.60;99.90;;;;;;5060285;28;20237;-78
2022/03/30 05:12:18;;;;;;;31.00;17.07;;;5.50;99.90;;;;;;5060306;28;20207;-78
2022/03/30 05:14:44;;;;;;;29.87;17.77;;;5.40;99.90;;;;;;5061597;28;20183;-78
2022/03/30 05:17:10;;;;;;;33.60;16.80;;;5.40;99.90;;;;;;5069181;28;20175;-79
2022/03/30 05:19:37;;;;;;;30.07;17.43;;;5.30;1.00;;;;;;5070027;28;20179;-79
2022/03/30 05:22:04;;;;;;;30.00;16.47;;;5.30;1.00;;;;;;5064757;28;20188;-78
2022/03/30 05:24:30;;;;;;;38.37;18.13;;;5.30;35.10;;;;;;5042562;28;20602;-78
2022/03/30 05:26:56;;;;;;;32.93;16.97;;;5.20;1.00;;;;;;5058633;28;20176;-80
2022/03/30 05:29:21;;;;;;;32.23;17.90;;;5.20;93.70;;;;;;5056486;28;20175;-78
2022/03/30 05:31:47;;;;;;;31.40;17.37;;;5.20;99.90;;;;;;5056576;28;20229;-78
2022/03/30 05:34:12;;;;;;;31.27;17.93;;;5.20;99.90;;;;;;5054785;28;20650;-78
2022/03/30 05:36:38;;;;;;;36.80;18.10;;;5.20;99.90;;;;;;5057146;28;20180;-79
2022/03/30 05:39:04;;;;;;;36.60;18.40;;;5.20;99.90;;;;;;5058500;28;20280;-79
2022/03/30 05:41:30;;;;;;;34.90;18.83;;;5.10;1.00;;;;;;5056659;28;20194;-79
2022/03/30 05:43:56;;;;;;;36.13;18.23;;;5.10;1.00;;;;;;5040847;28;20253;-79
2022/03/30 05:46:21;;;;;;;34.87;18.20;;;5.10;1.00;;;;;;5059289;28;20180;-79
2022/03/30 05:48:47;;;;;;;37.43;18.60;;;5.10;1.00;;;;;;5059026;28;20211;-79
2022/03/30 05:51:13;;;;;;;34.20;19.50;;;5.10;1.00;;;;;;5040202;28;20203;-79
2022/03/30 05:53:39;;;;;;;37.90;19.30;;;5.10;1.00;;;;;;5057210;28;20195;-79
2022/03/30 05:56:05;;;;;;;32.97;19.57;;;5.10;1.00;;;;;;5058465;28;20167;-76
2022/03/30 05:58:31;;;;;;;40.03;21.40;;;5.10;1.00;;;;;;5054895;28;20171;-77
2022/03/30 06:00:56;;;;;;;35.60;20.27;;;5.10;1.00;;;;;;5054278;28;20193;-77
2022/03/30 06:03:22;;;;;;;38.97;20.00;;;5.10;1.00;;;;;;5058015;28;20616;-78
2022/03/30 06:05:50;;;;;;;37.33;20.53;;;5.10;1.00;;;;;;5057765;28;20172;-78
2022/03/30 06:08:16;;;;;;;40.03;20.53;;;5.20;1.00;;;;;;5057565;28;20173;-78
2022/03/30 06:10:42;;;;;;;34.43;19.47;;;5.20;1.00;;;;;;5058334;28;20241;-78
2022/03/30 06:13:08;;;;;;;37.93;20.93;;;5.30;1.00;;;;;;5056369;28;20290;-78
2022/03/30 06:15:34;;;;;;;39.50;21.23;;;5.20;1.00;;;;;;5036742;28;20175;-77
2022/03/30 06:18:00;;;;;;;42.87;20.50;;;5.20;1.00;;;;;;5053071;28;20174;-78
2022/03/30 06:20:26;;;;;;;36.80;19.43;;;5.20;1.00;;;;;;5053536;28;20179;-77
2022/03/30 06:22:53;;;;;;;34.73;19.53;;;5.20;1.00;;;;;;5053744;28;20199;-77
2022/03/30 06:25:24;;;;;;;36.13;19.93;;;5.20;1.00;;;;;;5053373;28;20600;-78
2022/03/30 06:27:50;;;;;;;39.07;21.00;;;5.20;1.00;;;;;;5053033;28;20175;-77
2022/03/30 06:30:16;;;;;;;47.17;20.60;;;5.30;1.00;;;;;;5053592;28;20670;-77
2022/03/30 06:32:41;;;;;;;41.80;21.60;;;5.30;1.00;;;;;;5035495;28;20249;-77
2022/03/30 06:35:07;;;;;;;35.10;19.37;;;5.30;1.00;;;;;;5053511;28;20164;-77
2022/03/30 06:37:33;;;;;;;39.90;20.77;;;5.40;1.00;;;;;;5053580;28;20171;-77
2022/03/30 06:39:58;;;;;;;39.37;20.30;;;5.40;1.00;;;;;;5053613;28;20650;-77
2022/03/30 06:42:24;;;;;;;40.67;20.40;;;5.40;1.00;;;;;;5053374;28;20196;-77
2022/03/30 06:44:49;;;;;;;33.13;20.33;;;5.50;1.00;;;;;;5035673;28;20183;-77
2022/03/30 06:47:15;;;;;;;41.80;19.63;;;5.50;1.00;;;;;;5054118;28;20163;-77
2022/03/30 06:49:41;;;;;;;51.43;21.33;;;5.50;1.00;;;;;;5053221;28;20646;-77
2022/03/30 06:52:08;;;;;;;37.90;20.73;;;5.60;1.00;;;;;;5035120;28;20195;-76
2022/03/30 06:54:35;;;;;;;36.93;20.33;;;5.70;99.90;;;;;;5053235;28;20172;-77
2022/03/30 06:57:02;;;;;;;45.37;21.43;;;5.70;1.00;;;;;;5053720;28;20167;-77
2022/03/30 06:59:28;;;;;;;34.10;20.63;;;5.70;1.00;;;;;;5035318;28;20176;-76
2022/03/30 07:01:58;;;;;;;35.10;20.13;;;5.80;1.00;;;;;;5035184;28;20689;-76
2022/03/30 07:04:24;;;;;;;34.53;19.27;;;5.90;1.00;;;;;;5035606;28;20715;-77
2022/03/30 07:12:19;;;;;;;41.13;20.17;;;6.00;99.90;;;;;;5053214;28;20213;-77
2022/03/30 07:14:47;;;;;;;36.03;19.20;;;6.10;1.00;;;;;;5052934;28;20171;-76
2022/03/30 07:17:13;;;;;;;34.67;20.80;;;6.10;1.00;;;;;;5052938;28;20159;-76
2022/03/30 07:19:40;;;;;;;44.77;20.67;;;6.20;99.90;;;;;;5052939;28;20176;-77
2022/03/30 07:22:07;;;;;;;38.73;20.47;;;6.30;99.90;;;;;;5034977;28;20744;-77
2022/03/30 07:24:32;;;;;;;32.53;18.43;;;6.30;1.00;;;;;;5052979;28;20213;-77
2022/03/30 07:26:58;;;;;;;35.60;20.13;;;6.40;1.00;;;;;;5053100;28;20247;-77
2022/03/30 07:29:24;;;;;;;34.97;19.53;;;6.50;1.00;;;;;;5052826;28;20559;-77
2022/03/30 07:31:50;;;;;;;35.07;18.23;;;6.50;1.00;;;;;;5052886;28;20682;-77
2022/03/30 07:34:16;;;;;;;33.33;19.23;;;6.60;99.90;;;;;;5053164;28;20167;-77
2022/03/30 07:36:41;;;;;;;35.67;19.70;;;6.70;1.00;;;;;;5052662;28;20190;-77
2022/03/30 07:39:07;;;;;;;34.17;19.90;;;6.70;1.00;;;;;;5052587;28;20263;-77
2022/03/30 07:41:32;;;;;;;32.27;17.63;;;6.80;1.00;;;;;;5052600;28;20215;-76
2022/03/30 07:43:58;;;;;;;33.53;19.13;;;6.80;1.00;;;;;;5052688;28;20176;-77
2022/03/30 07:46:23;;;;;;;29.07;18.50;;;6.90;1.00;;;;;;5034809;28;20186;-77
2022/03/30 07:48:49;;;;;;;34.27;18.60;;;6.90;1.00;;;;;;5034835;28;20189;-76
2022/03/30 07:51:14;;;;;;;29.23;17.57;;;7.00;99.90;;;;;;5034734;28;20226;-77
2022/03/30 07:53:40;;;;;;;30.63;17.97;;;7.00;1.00;;;;;;5053020;28;20593;-77
2022/03/30 07:56:05;;;;;;;34.80;16.83;;;7.10;1.00;;;;;;5054762;28;20178;-76
2022/03/30 07:58:31;;;;;;;29.77;17.53;;;7.10;1.00;;;;;;5053307;28;20164;-77
2022/03/30 08:00:56;;;;;;;33.00;17.60;;;7.30;99.90;;;;;;5052748;28;20176;-77
2022/03/30 08:03:22;;;;;;;34.53;17.17;;;7.30;99.90;;;;;;5054261;28;20206;-78
2022/03/30 08:05:48;;;;;;;30.23;17.73;;;7.40;99.90;;;;;;5038620;28;20180;-76
2022/03/30 08:08:13;;;;;;;26.30;16.30;;;7.40;1.00;;;;;;5056399;28;20182;-77
2022/03/30 08:10:39;;;;;;;24.83;15.03;;;7.50;1.00;;;;;;5056475;28;20184;-77
2022/03/30 08:13:05;;;;;;;26.03;15.03;;;7.70;99.90;;;;;;5056188;28;20246;-77
2022/03/30 08:15:32;;;;;;;25.73;14.67;;;7.70;1.00;;;;;;5056144;28;20174;-76
2022/03/30 08:17:58;;;;;;;28.93;14.70;;;7.80;1.00;;;;;;5054847;28;20543;-77
2022/03/30 08:23:08;;;;;;;22.90;14.33;;;7.90;99.90;;;;;;5056388;28;20210;-77
2022/03/30 08:25:34;;;;;;;30.67;15.07;;;8.00;99.90;;;;;;5038031;28;20186;-77
2022/03/30 08:28:00;;;;;;;25.43;15.93;;;8.10;99.90;;;;;;5056238;28;20592;-77
2022/03/30 08:30:26;;;;;;;25.57;15.47;;;8.10;99.90;;;;;;5056155;28;20229;-76
2022/03/30 08:32:51;;;;;;;33.60;15.33;;;8.20;99.90;;;;;;5055754;28;20188;-76
2022/03/30 08:35:17;;;;;;;30.00;14.43;;;8.20;1.00;;;;;;5037902;28;20168;-76
2022/03/30 08:37:43;;;;;;;29.37;14.87;;;8.30;1.00;;;;;;5056337;28;20168;-76
2022/03/30 08:40:08;;;;;;;24.80;14.37;;;8.30;1.00;;;;;;5055664;28;20172;-77
2022/03/30 08:42:36;;;;;;;26.33;15.00;;;8.40;99.90;;;;;;5055593;28;20241;-77
2022/03/30 08:45:06;;;;;;;24.87;13.97;;;8.40;1.00;;;;;;5055717;28;20180;-77
2022/03/30 08:47:33;;;;;;;21.43;12.97;;;8.50;99.90;;;;;;5055774;28;20171;-77
2022/03/30 08:49:58;;;;;;;25.70;13.13;;;8.60;99.90;;;;;;5055904;28;20222;-77
2022/03/30 08:52:24;;;;;;;29.03;14.13;;;8.60;99.90;;;;;;5055476;28;20219;-77
2022/03/30 08:54:51;;;;;;;30.70;13.83;;;8.60;99.90;;;;;;5055505;28;20258;-76
2022/03/30 08:57:17;;;;;;;24.43;13.67;;;8.80;99.90;;;;;;5055720;28;20166;-77
2022/03/30 09:00:04;;;;;;;20.33;12.23;;;8.80;1.00;;;;;;5054123;28;20176;-76
2022/03/30 09:02:41;;;;;;;22.70;13.33;;;8.90;1.00;;;;;;5037414;28;20274;-76
2022/03/30 09:05:15;;;;;;;22.97;13.23;;;8.90;1.00;;;;;;5054082;28;20222;-77
2022/03/30 09:07:42;;;;;;;21.83;12.07;;;9.00;5.10;;;;;;5037668;28;20577;-77
2022/03/30 09:10:16;;;;;;;24.40;13.40;;;9.10;1.00;;;;;;5055157;28;20190;-77
2022/03/30 09:12:43;;;;;;;22.67;12.10;;;9.20;1.00;;;;;;5037074;28;20208;-77
2022/03/30 09:15:09;;;;;;;20.83;12.87;;;9.20;1.00;;;;;;5037263;28;20704;-77
2022/03/30 09:17:37;;;;;;;22.93;11.80;;;9.30;1.00;;;;;;5053783;28;20666;-77
2022/03/30 09:20:05;;;;;;;22.70;11.57;;;9.40;1.00;;;;;;5037072;28;20266;-77
2022/03/30 09:22:33;;;;;;;18.10;11.37;;;9.40;99.90;;;;;;5037037;28;20195;-77
2022/03/30 09:25:02;;;;;;;22.00;10.87;;;9.40;99.90;;;;;;5036990;28;20210;-77
2022/03/30 09:27:28;;;;;;;18.10;10.87;;;9.50;99.90;;;;;;5054918;28;20168;-76
2022/03/30 09:29:54;;;;;;;15.47;10.33;;;9.60;99.90;;;;;;5054883;28;20187;-77
2022/03/30 09:32:20;;;;;;;18.23;10.60;;;9.60;99.90;;;;;;5037040;28;20191;-77
2022/03/30 09:34:51;;;;;;;23.67;11.17;;;9.60;99.90;;;;;;5054769;28;20167;-77
2022/03/30 09:37:16;;;;;;;16.90;9.57;;;9.70;95.60;;;;;;5054747;28;20256;-77
2022/03/30 09:39:43;;;;;;;23.80;10.70;;;9.80;58.10;;;;;;5036795;28;20179;-77
2022/03/30 09:42:10;;;;;;;16.93;9.80;;;9.80;99.90;;;;;;5053332;28;20192;-77
2022/03/30 09:44:46;;;;;;;14.30;9.70;;;9.90;1.00;;;;;;5054613;28;20259;-77
2022/03/30 09:47:12;;;;;;;16.00;10.27;;;10.00;1.00;;;;;;5054591;28;20164;-77
2022/03/30 09:49:43;;;;;;;17.77;10.10;;;10.00;1.00;;;;;;5054630;28;20255;-77
2022/03/30 09:52:20;;;;;;;16.63;9.70;;;10.10;37.30;;;;;;5035765;28;20449;-78
2022/03/30 09:54:49;;;;;;;15.57;9.70;;;10.20;55.90;;;;;;5054185;28;20152;-76
2022/03/30 09:57:35;;;;;;;16.97;10.50;;;10.30;29.70;;;;;;5036448;28;20259;-77
2022/03/30 10:00:17;;;;;;;15.97;10.23;;;10.30;75.70;;;;;;5035661;28;20190;-76
2022/03/30 10:02:49;;;;;;;16.73;10.17;;;10.30;1.00;;;;;;5036298;28;20195;-77
2022/03/30 10:05:19;;;;;;;15.23;9.10;;;10.40;70.90;;;;;;5054180;28;20239;-77
2022/03/30 10:07:45;;;;;;;15.23;9.90;;;10.50;1.00;;;;;;5036187;28;20186;-77
2022/03/30 10:10:14;;;;;;;18.93;8.87;;;10.60;1.00;;;;;;5053898;28;20199;-77
2022/03/30 10:12:39;;;;;;;13.47;9.23;;;10.60;1.00;;;;;;5074151;22;20227;-79
2022/03/30 10:15:08;;;;;;;17.17;9.50;;;10.70;1.00;;;;;;5024133;28;20193;-78
2022/03/30 10:17:34;;;;;;;16.27;9.20;;;10.70;1.00;;;;;;5005533;28;20173;-78
2022/03/30 10:20:01;;;;;;;15.67;10.13;;;10.80;1.00;;;;;;5026099;28;20187;-79
2022/03/30 10:22:49;;;;;;;16.43;9.13;;;10.80;1.00;;;;;;5008550;28;20689;-79
2022/03/30 10:25:43;;;;;;;18.90;9.53;;;10.80;1.00;;;;;;5026771;28;20158;-79
2022/03/30 10:28:23;;;;;;;18.80;9.17;;;10.90;1.00;;;;;;5012511;28;20195;-79
2022/03/30 10:30:54;;;;;;;16.87;9.43;;;10.90;1.00;;;;;;5013444;28;20220;-79
2022/03/30 10:33:32;;;;;;;25.13;10.67;;;11.00;1.00;;;;;;5031920;28;20189;-79
2022/03/30 10:35:59;;;;;;;17.67;9.70;;;11.00;1.00;;;;;;5029884;28;20169;-79
2022/03/30 10:38:25;;;;;;;15.07;8.90;;;11.00;1.00;;;;;;5029956;28;20165;-79
2022/03/30 10:41:07;;;;;;;14.90;9.70;;;11.10;1.00;;;;;;5031183;28;20191;-79
2022/03/30 10:43:32;;;;;;;16.80;9.23;;;11.20;1.00;;;;;;5030991;28;20201;-79
2022/03/30 10:45:59;;;;;;;14.97;8.93;;;11.20;1.00;;;;;;5014369;28;20211;-79
2022/03/30 10:48:28;;;;;;;13.83;9.20;;;11.20;99.90;;;;;;5013802;28;20599;-79
2022/03/30 10:50:57;;;;;;;15.67;10.07;;;11.20;1.00;;;;;;5030063;28;20286;-79
2022/03/30 10:53:34;;;;;;;20.17;10.50;;;11.20;99.90;;;;;;5030562;28;20195;-79
2022/03/30 10:56:13;;;;;;;14.77;9.60;;;11.20;99.90;;;;;;5012847;28;20567;-78
2022/03/30 10:58:58;;;;;;;14.77;8.67;;;11.20;1.00;;;;;;5012732;28;20200;-80
2022/03/30 11:01:30;;;;;;;18.87;9.43;;;11.20;99.90;;;;;;5031657;28;20523;-79
2022/03/30 11:03:56;;;;;;;14.80;9.20;;;11.30;99.90;;;;;;5032075;28;20201;-79
2022/03/30 11:06:22;;;;;;;16.73;9.90;;;11.40;1.00;;;;;;5032027;28;20525;-79
2022/03/30 11:08:51;;;;;;;13.20;8.60;;;11.50;1.00;;;;;;5032306;28;20184;-78
2022/03/30 11:11:35;;;;;;;17.50;9.10;;;11.40;1.00;;;;;;5013667;28;20192;-80
2022/03/30 11:14:27;;;;;;;14.53;8.97;;;11.50;1.00;;;;;;5014751;28;20228;-80
2022/03/30 11:17:03;;;;;;;17.17;9.03;;;11.50;99.90;;;;;;5034220;28;20181;-78
2022/03/30 11:19:54;;;;;;;17.30;9.10;;;11.40;99.90;;;;;;5014326;28;20176;-79
2022/03/30 11:22:25;;;;;;;18.97;9.23;;;11.50;99.90;;;;;;5015392;28;20320;-80
2022/03/30 11:25:10;;;;;;;20.00;8.73;;;11.60;99.90;;;;;;5016465;28;20180;-79
2022/03/30 11:27:37;;;;;;;13.10;7.83;;;11.60;99.90;;;;;;5033523;28;20165;-79
2022/03/30 11:30:17;;;;;;;14.50;9.20;;;11.70;99.90;;;;;;5028909;28;20285;-79
2022/03/30 11:32:50;;;;;;;13.00;8.43;;;11.80;99.90;;;;;;5011781;28;20192;-79
2022/03/30 11:35:18;;;;;;;14.47;9.40;;;11.80;99.90;;;;;;5031640;28;20179;-79
2022/03/30 11:37:49;;;;;;;12.83;8.53;;;11.70;99.90;;;;;;5031532;28;20199;-77
2022/03/30 11:40:20;;;;;;;13.87;8.50;;;11.80;99.90;;;;;;5033966;28;20232;-79
2022/03/30 11:42:57;;;;;;;12.83;8.97;;;11.80;99.90;;;;;;5015298;28;20246;-78
2022/03/30 11:45:25;;;;;;;15.70;8.73;;;12.00;99.90;;;;;;5015975;28;20192;-79
2022/03/30 11:47:52;;;;;;;11.67;8.03;;;12.10;99.90;;;;;;5014225;28;20223;-79
2022/03/30 11:50:29;;;;;;;13.53;9.30;;;12.00;99.90;;;;;;5034716;28;20276;-78
2022/03/30 11:52:59;;;;;;;15.40;8.67;;;12.10;99.90;;;;;;5016657;28;20192;-78
2022/03/30 11:55:26;;;;;;;18.73;9.30;;;12.20;99.90;;;;;;5034402;28;20601;-79
2022/03/30 11:57:52;;;;;;;14.50;8.90;;;12.30;99.90;;;;;;5034105;28;20169;-79
2022/03/30 12:00:22;;;;;;;12.13;8.13;;;12.40;99.90;;;;;;5031897;28;20177;-77
2022/03/30 12:02:48;;;;;;;14.93;8.40;;;12.30;99.90;;;;;;5032047;28;20197;-80
2022/03/30 12:05:13;;;;;;;15.07;8.80;;;12.30;99.90;;;;;;5025784;28;20237;-80
2022/03/30 12:07:40;;;;;;;16.93;9.10;;;12.20;99.90;;;;;;5007124;28;20687;-80
2022/03/30 12:10:11;;;;;;;13.27;9.30;;;12.10;50.10;;;;;;5024125;28;20200;-80
2022/03/30 12:12:37;;;;;;;15.07;9.93;;;12.00;49.90;;;;;;5023890;28;20216;-80
2022/03/30 12:15:16;;;;;;;12.17;8.30;;;12.10;99.90;;;;;;5024506;28;20656;-77
2022/03/30 12:17:49;;;;;;;12.93;8.50;;;12.20;99.90;;;;;;5023546;28;20293;-79
2022/03/30 12:20:25;;;;;;;14.57;9.30;;;12.20;95.20;;;;;;5024068;28;20153;-79
2022/03/30 12:23:00;;;;;;;18.93;9.27;;;12.30;57.50;;;;;;5007176;28;20626;-80
2022/03/30 12:25:27;;;;;;;21.33;9.33;;;12.50;64.80;;;;;;5006563;28;20200;-81
2022/03/30 12:27:53;;;;;;;16.13;9.10;;;12.40;1.00;;;;;;5021146;28;20183;-81
2022/03/30 12:30:20;;;;;;;11.80;8.60;;;12.50;1.00;;;;;;5021027;28;20193;-81
2022/03/30 12:32:46;;;;;;;14.80;9.67;;;12.60;1.00;;;;;;5022064;28;20247;-80
2022/03/30 12:35:15;;;;;;;14.60;8.77;;;12.70;85.30;;;;;;5005629;28;20192;-81
2022/03/30 12:37:43;;;;;;;14.53;9.40;;;12.80;74.80;;;;;;5023409;28;20172;-79
2022/03/30 12:40:16;;;;;;;11.80;8.90;;;12.90;75.50;;;;;;5023440;28;20165;-80
2022/03/30 12:42:43;;;;;;;17.67;8.77;;;12.90;1.00;;;;;;5030132;28;20240;-80
2022/03/30 12:45:10;;;;;;;11.83;9.43;;;12.90;1.00;;;;;;5003392;28;20173;-81
2022/03/30 12:47:54;;;;;;;11.57;8.83;;;12.90;1.00;;;;;;5002857;28;20169;-81
2022/03/30 12:50:26;;;;;;;18.13;9.80;;;13.00;1.00;;;;;;5003626;28;20572;-81
2022/03/30 12:52:53;;;;;;;11.93;9.20;;;13.00;1.00;;;;;;5021439;28;20245;-81
2022/03/30 12:55:34;;;;;;;15.90;10.23;;;13.00;1.00;;;;;;5020965;28;20173;-80
2022/03/30 12:58:13;;;;;;;14.37;9.43;;;13.10;1.00;;;;;;5019504;28;20557;-80